Time;durP1;ratioP1;P1;durP2;ratioP2;P2;SDS_P1;SDS_P2;PMS_P1;PMS_P2;Temp;Humidity;BMP_temperature;BMP_pressure;BME280_temperature;BME280_humidity;BME280_pressure;Samples;Min_cycle;Max_cycle;Signal;HPM_P1;HPM_P2
2022/04/13 00:01:06;;;;;;;7.70;3.03;;;;;;;13.77;39.62;96423.97;6200315;23;20080;-80
2022/04/13 00:03:47;;;;;;;3.75;2.50;;;;;;;13.75;39.88;96425.97;6201076;23;20021;-81
2022/04/13 00:06:18;;;;;;;4.75;2.60;;;;;;;13.71;39.62;96418.69;6199451;23;20404;-81
2022/04/13 00:08:51;;;;;;;3.78;2.80;;;;;;;13.66;39.81;96416.69;6174600;23;20025;-82
2022/04/13 00:11:20;;;;;;;5.95;3.30;;;;;;;13.62;39.85;96419.94;6198458;23;20021;-81
2022/04/13 00:13:54;;;;;;;7.05;2.95;;;;;;;13.59;39.83;96427.19;6198355;23;20021;-81
2022/04/13 00:16:26;;;;;;;4.13;2.70;;;;;;;13.60;39.89;96426.22;6172334;23;20037;-80
2022/04/13 00:18:55;;;;;;;5.60;2.75;;;;;;;13.58;40.06;96425.59;6198257;23;20017;-80
2022/04/13 00:21:26;;;;;;;5.60;2.80;;;;;;;13.57;40.00;96431.03;6199719;23;20047;-80
2022/04/13 00:24:04;;;;;;;4.78;3.03;;;;;;;13.52;40.11;96429.03;6198831;23;20073;-81
2022/04/13 00:26:39;;;;;;;6.13;3.22;;;;;;;13.47;40.15;96421.00;6199681;23;20048;-81
2022/04/13 00:29:13;;;;;;;4.93;3.00;;;;;;;13.40;40.24;96422.78;6199503;23;20017;-80
2022/04/13 00:31:51;;;;;;;4.72;2.83;;;;;;;13.35;40.19;96422.63;6173359;23;20023;-80
2022/04/13 00:34:22;;;;;;;3.25;2.78;;;;;;;13.32;40.24;96410.72;6200507;23;20415;-82
2022/04/13 00:36:57;;;;;;;4.60;2.70;;;;;;;13.29;40.34;96407.69;6199227;23;20021;-81
2022/04/13 00:39:36;;;;;;;3.60;2.72;;;;;;;13.30;40.25;96407.50;6198962;23;20025;-81
2022/04/13 00:42:16;;;;;;;5.32;2.90;;;;;;;13.28;40.08;96413.94;6198861;23;20025;-82
2022/04/13 00:44:55;;;;;;;5.45;3.55;;;;;;;13.31;40.18;96413.53;6201587;23;20393;-82
2022/04/13 00:47:26;;;;;;;5.70;3.28;;;;;;;13.36;39.93;96413.75;6176546;23;20073;-80
2022/04/13 00:49:56;;;;;;;5.90;3.20;;;;;;;13.35;39.98;96399.84;6214430;23;20012;-80
2022/04/13 00:52:29;;;;;;;8.45;3.55;;;;;;;13.38;39.88;96403.84;6214394;23;20017;-80
2022/04/13 00:55:04;;;;;;;3.25;2.55;;;;;;;13.39;39.79;96395.81;6207364;23;20024;-80
2022/04/13 00:57:40;;;;;;;4.55;3.13;;;;;;;13.40;39.75;96404.47;6198533;23;20021;-80
2022/04/13 01:00:16;;;;;;;5.57;2.60;;;;;;;13.39;39.64;96406.28;6196860;23;20413;-81
2022/04/13 01:02:51;;;;;;;4.07;2.85;;;;;;;13.39;39.69;96401.03;6209822;23;20036;-80
2022/04/13 01:05:24;;;;;;;4.68;3.22;;;;;;;13.44;39.68;96413.53;6211686;23;20032;-80
2022/04/13 01:08:01;;;;;;;5.82;2.53;;;;;;;13.46;39.39;96408.09;6205210;23;20013;-81
2022/04/13 01:10:35;;;;;;;5.88;2.92;;;;;;;13.46;39.24;96408.88;6205450;23;20036;-81
2022/04/13 01:13:16;;;;;;;6.35;3.20;;;;;;;13.50;39.11;96402.22;6201497;23;20052;-81
2022/04/13 01:15:53;;;;;;;5.55;3.30;;;;;;;13.50;38.79;96407.47;6199530;23;20031;-82
2022/04/13 01:18:45;;;;;;;6.38;2.97;;;;;;;13.51;38.88;96413.50;6197929;23;20029;-82
2022/04/13 01:21:25;;;;;;;5.35;2.63;;;;;;;13.52;38.58;96405.47;6198447;23;20017;-82
2022/04/13 01:24:18;;;;;;;4.63;2.92;;;;;;;13.53;38.49;96414.91;6198233;23;20025;-81
2022/04/13 01:26:55;;;;;;;4.30;2.88;;;;;;;13.55;38.37;96410.28;6150488;23;20456;-81
2022/04/13 01:29:29;;;;;;;4.30;2.50;;;;;;;13.56;38.21;96421.59;6197854;23;20013;-81
2022/04/13 01:32:11;;;;;;;4.30;2.70;;;;;;;13.55;38.11;96415.50;6197777;23;20076;-81
2022/04/13 01:34:49;;;;;;;4.57;2.95;;;;;;;13.51;38.17;96414.34;6173462;23;20017;-81
2022/04/13 01:37:24;;;;;;;6.97;3.08;;;;;;;13.50;38.31;96412.72;6172390;23;20024;-81
2022/04/13 01:40:00;;;;;;;6.47;3.40;;;;;;;13.50;37.87;96417.94;6196985;23;20021;-82
2022/04/13 01:42:36;;;;;;;4.45;2.88;;;;;;;13.50;38.03;96419.78;6199017;23;20025;-82
2022/04/13 01:45:19;;;;;;;6.93;3.00;;;;;;;13.51;37.87;96418.75;6196926;23;20021;-80
2022/04/13 01:47:57;;;;;;;;;;;;;;;13.51;37.85;96413.50;6197023;23;20048;-81
2022/04/13 01:50:31;;;;;;;4.53;2.75;;;;;;;13.48;37.71;96419.16;6170641;23;19999;-82
2022/04/13 01:53:04;;;;;;;3.50;2.45;;;;;;;13.49;37.47;96418.97;6199134;23;20482;-81
2022/04/13 01:56:01;;;;;;;4.47;3.22;;;;;;;13.49;37.22;96426.00;6191017;23;20056;-81
2022/04/13 01:58:33;;;;;;;5.43;3.03;;;;;;;13.47;37.18;96417.53;6171379;23;20067;-81
2022/04/13 02:01:06;;;;;;;3.95;2.88;;;;;;;13.46;37.11;96416.75;6198323;23;20017;-81
2022/04/13 02:03:44;;;;;;;6.35;2.67;;;;;;;13.47;37.30;96420.16;6202642;23;20080;-81
2022/04/13 02:06:19;;;;;;;6.63;2.70;;;;;;;13.46;36.91;96422.00;6196465;23;20021;-82
2022/04/13 02:08:50;;;;;;;5.45;2.67;;;;;;;13.46;36.92;96416.75;6204569;23;20017;-80
2022/04/13 02:11:31;;;;;;;6.00;3.10;;;;;;;13.49;36.77;96424.22;6213614;23;20013;-80
2022/04/13 02:14:04;;;;;;;5.05;3.00;;;;;;;13.49;36.85;96420.78;6201082;23;20044;-81
2022/04/13 02:16:36;;;;;;;6.18;2.85;;;;;;;13.50;36.75;96427.63;6194792;23;20021;-81
2022/04/13 02:19:14;;;;;;;4.55;2.80;;;;;;;13.49;37.08;96421.59;6166877;23;20017;-81
2022/04/13 02:21:53;;;;;;;3.90;2.50;;;;;;;13.48;36.89;96422.59;6166425;23;20025;-82
2022/04/13 02:24:25;;;;;;;5.38;2.95;;;;;;;13.48;36.84;96427.03;6166411;23;20021;-81
2022/04/13 02:27:04;;;;;;;3.80;2.30;;;;;;;13.46;36.49;96427.22;6165470;23;20026;-81
2022/04/13 02:29:39;;;;;;;5.60;2.92;;;;;;;13.45;36.61;96419.59;6165864;23;20259;-81
2022/04/13 02:32:13;;;;;;;6.10;3.25;;;;;;;13.48;36.68;96416.56;6166344;23;20021;-81
2022/04/13 02:34:48;;;;;;;5.32;2.75;;;;;;;13.49;36.64;96405.88;6168011;23;20032;-80
2022/04/13 02:37:23;;;;;;;7.45;3.10;;;;;;;13.49;36.96;96411.13;6141643;23;20018;-82
2022/04/13 02:39:56;;;;;;;4.82;2.63;;;;;;;13.49;37.31;96413.75;6170393;23;20069;-81
2022/04/13 02:42:38;;;;;;;5.13;2.88;;;;;;;13.44;37.41;96413.53;6166537;23;20096;-81
2022/04/13 02:45:10;;;;;;;5.85;2.90;;;;;;;13.38;37.21;96409.09;6166631;23;20021;-82
2022/04/13 02:47:41;;;;;;;4.63;3.03;;;;;;;13.35;36.89;96409.50;6171850;23;20032;-81
2022/04/13 02:50:16;;;;;;;5.30;3.00;;;;;;;13.31;36.77;96413.53;6179111;23;20270;-80
2022/04/13 02:52:57;;;;;;;4.05;2.80;;;;;;;13.25;36.95;96412.53;6159221;23;20014;-80
2022/04/13 02:55:32;;;;;;;5.72;2.80;;;;;;;13.23;36.98;96411.09;6179558;23;20029;-81
2022/04/13 02:58:10;;;;;;;4.57;2.80;;;;;;;13.20;36.68;96413.09;6174668;23;20021;-81
2022/04/13 03:00:44;;;;;;;5.38;3.25;;;;;;;13.19;36.78;96411.50;6167122;23;20021;-82
2022/04/13 03:03:16;;;;;;;3.67;2.58;;;;;;;13.16;36.81;96411.94;6166218;23;20022;-81
2022/04/13 03:05:49;;;;;;;4.05;2.33;;;;;;;13.16;36.95;96408.47;6165965;23;20022;-82
2022/04/13 03:08:20;;;;;;;4.50;2.63;;;;;;;13.15;37.51;96410.31;6166213;23;20017;-81
2022/04/13 03:10:53;;;;;;;4.07;2.45;;;;;;;13.09;37.53;96408.50;6168909;23;20021;-81
2022/04/13 03:13:26;;;;;;;;;;;;;;;13.09;37.45;96410.31;6140679;23;20036;-81
2022/04/13 03:15:59;;;;;;;4.82;2.83;;;;;;;13.03;37.39;96406.69;6165855;23;19992;-82
2022/04/13 03:18:31;;;;;;;5.53;3.30;;;;;;;13.02;37.70;96409.50;6165803;23;20028;-81
2022/04/13 03:21:09;;;;;;;6.18;3.20;;;;;;;13.01;37.58;96418.34;6164704;23;20028;-81
2022/04/13 03:23:41;;;;;;;5.03;2.85;;;;;;;12.98;37.38;96404.66;6168073;23;20041;-81
2022/04/13 03:26:14;;;;;;;6.05;3.03;;;;;;;12.99;37.51;96410.72;6176372;23;20025;-82
2022/04/13 03:28:51;;;;;;;4.03;2.80;;;;;;;13.01;37.16;96403.47;6168165;23;20064;-82
2022/04/13 03:31:23;;;;;;;5.15;3.00;;;;;;;13.04;37.65;96403.06;6166890;23;20021;-81
2022/04/13 03:33:56;;;;;;;6.82;2.90;;;;;;;13.01;37.73;96403.47;6167803;23;20028;-82
2022/04/13 03:36:32;;;;;;;4.05;2.80;;;;;;;12.98;38.01;96403.84;6166666;23;20076;-81
2022/04/13 03:39:06;;;;;;;4.05;2.83;;;;;;;12.93;38.43;96408.91;6166751;23;20025;-81
2022/04/13 03:41:41;;;;;;;6.30;2.83;;;;;;;12.84;38.52;96408.28;6167308;23;20049;-82
2022/04/13 03:44:18;;;;;;;5.95;2.72;;;;;;;12.76;38.70;96409.28;6168057;23;20105;-81
2022/04/13 03:46:48;;;;;;;5.68;3.42;;;;;;;12.68;38.68;96414.72;6167984;23;20022;-82
2022/04/13 03:49:21;;;;;;;3.40;2.47;;;;;;;12.62;38.69;96415.53;6166376;23;20014;-81
2022/04/13 03:51:53;;;;;;;5.35;3.55;;;;;;;12.60;38.82;96422.75;6168080;23;20017;-81
2022/04/13 03:54:27;;;;;;;4.72;3.30;;;;;;;12.55;38.69;96422.53;6167609;23;20049;-81
2022/04/13 03:57:01;;;;;;;7.53;2.90;;;;;;;12.49;38.62;96423.34;6166983;23;20025;-81
2022/04/13 03:59:37;;;;;;;5.25;3.72;;;;;;;12.44;38.59;96433.56;6167162;23;20358;-82
2022/04/13 04:02:07;;;;;;;5.32;3.40;;;;;;;12.41;38.79;96439.22;6167498;23;20096;-81
2022/04/13 04:04:37;;;;;;;4.95;3.53;;;;;;;12.41;38.83;96439.22;6140594;23;20037;-81
2022/04/13 04:07:09;;;;;;;6.50;4.40;;;;;;;12.39;38.93;96436.00;6166857;23;20091;-81
2022/04/13 04:09:39;;;;;;;4.25;3.00;;;;;;;12.32;39.23;96434.16;6165224;23;20025;-80
2022/04/13 04:12:12;;;;;;;6.15;3.33;;;;;;;12.28;39.37;96432.94;6165150;23;20029;-81
2022/04/13 04:14:45;;;;;;;5.93;3.33;;;;;;;12.27;39.30;96439.19;6166670;23;20151;-81
2022/04/13 04:17:15;;;;;;;8.70;3.55;;;;;;;12.24;39.10;96439.53;6166096;23;20021;-81
2022/04/13 04:19:46;;;;;;;5.70;3.47;;;;;;;12.20;39.26;96437.53;6166030;23;20017;-81
2022/04/13 04:22:15;;;;;;;8.43;5.07;;;;;;;12.15;39.30;96438.91;6166244;23;20096;-82
2022/04/13 04:24:48;;;;;;;9.00;6.25;;;;;;;12.13;39.42;96447.97;6177651;23;20005;-80
2022/04/13 04:27:19;;;;;;;11.20;5.85;;;;;;;12.12;39.43;96446.34;6180419;23;20521;-81
2022/04/13 04:29:51;;;;;;;7.75;5.38;;;;;;;12.10;39.63;96453.59;6169272;23;20471;-81
2022/04/13 04:32:23;;;;;;;8.98;4.57;;;;;;;12.06;39.66;96447.13;6166079;23;20022;-81
2022/04/13 04:34:55;;;;;;;5.25;3.40;;;;;;;12.05;39.81;96448.16;6165330;23;20030;-82
2022/04/13 04:37:24;;;;;;;5.53;3.70;;;;;;;12.06;39.83;96465.44;6164763;23;20018;-80
2022/04/13 04:39:56;;;;;;;7.35;3.53;;;;;;;12.06;39.90;96465.44;6165748;23;20018;-81
2022/04/13 04:42:29;;;;;;;9.90;4.72;;;;;;;12.01;40.16;96465.22;6165092;23;20028;-81
2022/04/13 04:45:01;;;;;;;6.07;4.22;;;;;;;11.96;40.63;96468.41;6164595;23;20492;-81
2022/04/13 04:47:32;;;;;;;9.10;4.30;;;;;;;11.93;40.96;96469.59;6166348;23;20052;-81
2022/04/13 04:50:04;;;;;;;7.13;4.45;;;;;;;11.89;41.36;96472.78;6167324;23;20028;-82
2022/04/13 04:52:35;;;;;;;7.18;4.07;;;;;;;11.86;41.78;96470.53;6163532;23;20458;-80
2022/04/13 04:55:08;;;;;;;10.95;4.20;;;;;;;11.85;41.93;96476.75;6163463;23;20100;-81
2022/04/13 04:57:41;;;;;;;8.05;4.68;;;;;;;11.85;42.10;96488.03;6170172;23;20077;-81
2022/04/13 05:00:17;;;;;;;8.02;4.20;;;;;;;11.85;41.86;96480.19;6164356;23;20025;-82
2022/04/13 05:02:50;;;;;;;11.40;5.00;;;;;;;11.80;41.82;96485.16;6167378;23;20022;-82
2022/04/13 05:05:23;;;;;;;7.22;4.22;;;;;;;11.73;42.28;96486.94;6174509;23;20057;-81
2022/04/13 05:07:55;;;;;;;;;;;;;;;11.70;42.18;96495.16;6159046;23;20018;-81
2022/04/13 05:10:26;;;;;;;7.18;4.30;;;;;;;11.58;42.65;96491.47;6181200;23;19923;-81
2022/04/13 05:12:58;;;;;;;7.78;5.40;;;;;;;11.48;42.93;96491.81;6166937;23;20021;-81
2022/04/13 05:15:31;;;;;;;10.00;5.32;;;;;;;11.40;43.16;96492.75;6167209;23;20050;-81
2022/04/13 05:18:02;;;;;;;10.18;4.90;;;;;;;11.32;43.16;96492.88;6150104;23;20052;-81
2022/04/13 05:20:33;;;;;;;6.93;4.25;;;;;;;11.24;43.48;96500.81;6166028;23;20017;-81
2022/04/13 05:23:03;;;;;;;10.35;5.13;;;;;;;11.22;43.40;96495.81;6164750;23;20049;-81
2022/04/13 05:25:32;;;;;;;12.52;4.47;;;;;;;11.20;43.64;96489.16;6137131;23;20090;-80
2022/04/13 05:28:02;;;;;;;6.63;4.28;;;;;;;11.14;43.76;96486.28;6139307;23;20025;-81
2022/04/13 05:30:35;;;;;;;11.80;4.53;;;;;;;11.12;44.33;96490.91;6162502;23;20100;-81
2022/04/13 05:33:06;;;;;;;5.90;3.60;;;;;;;11.14;43.95;96490.72;6163599;23;20488;-81
2022/04/13 05:35:36;;;;;;;13.55;5.18;;;;;;;11.12;44.39;96493.50;6164831;23;20021;-81
2022/04/13 06:39:54;;;;;;;10.53;5.20;;;;;;;12.27;42.41;96512.41;6180202;23;20012;-79
2022/04/13 06:49:53;;;;;;;8.60;5.22;;;;;;;12.68;41.27;96521.19;6153925;23;20010;-79
2022/04/13 06:56:23;;;;;;;10.85;5.43;;;;;;;12.92;40.94;96525.09;6094255;23;20007;-80
2022/04/13 07:09:58;;;;;;;12.57;5.20;;;;;;;13.51;40.51;96534.88;6178319;23;20282;-82
2022/04/13 07:16:14;;;;;;;7.43;5.03;;;;;;;13.75;40.31;96536.09;6176770;23;20009;-83
2022/04/13 07:22:52;;;;;;;7.50;4.47;;;;;;;14.13;40.33;96545.09;6169112;23;20080;-82
2022/04/13 07:26:02;;;;;;;;;;;;;;;14.29;40.64;96551.72;6213005;23;20005;-81
2022/04/13 07:34:46;;;;;;;7.72;4.10;;;;;;;14.78;40.64;96545.91;6173544;23;20024;-80
2022/04/13 07:43:12;;;;;;;12.60;5.93;;;;;;;15.43;40.71;96540.44;6177366;23;20009;-80
2022/04/13 07:46:19;;;;;;;12.88;5.75;;;;;;;15.68;39.82;96544.09;6151769;23;20018;-81
2022/04/13 07:49:18;;;;;;;10.90;5.60;;;;;;;15.96;40.29;96552.41;6153765;23;20021;-78
2022/04/13 07:52:00;;;;;;;9.13;5.72;;;;;;;16.14;38.76;96554.25;6128636;23;20010;-80
2022/04/13 07:54:56;;;;;;;10.15;5.32;;;;;;;16.34;38.58;96564.56;6153437;23;20026;-78
2022/04/13 08:01:11;;;;;;;9.43;5.30;;;;;;;16.82;37.94;96561.19;6188707;23;20048;-80
2022/04/13 08:04:17;;;;;;;9.32;4.82;;;;;;;17.04;38.73;96558.88;6188921;23;20053;-79
2022/04/13 08:10:47;;;;;;;8.48;4.57;;;;;;;17.53;36.94;96561.41;6162109;23;20031;-79
2022/04/13 08:13:50;;;;;;;7.57;4.82;;;;;;;17.77;37.50;96566.75;6183364;23;20052;-79
2022/04/13 08:17:04;;;;;;;8.85;4.65;;;;;;;17.95;37.48;96565.84;6184593;23;20052;-80
2022/04/13 08:31:48;;;;;;;7.32;4.68;;;;;;;18.99;36.74;96573.88;6183523;23;20029;-79
2022/04/13 08:34:37;;;;;;;5.10;3.38;;;;;;;19.19;36.29;96573.44;6184494;23;20005;-83
2022/04/13 08:43:39;;;;;;;8.75;4.15;;;;;;;19.72;35.19;96566.97;6173911;23;20017;-79
2022/04/13 08:46:37;;;;;;;10.05;4.18;;;;;;;19.87;34.52;96573.53;6184637;23;20025;-79
2022/04/13 08:52:35;;;;;;;8.75;3.65;;;;;;;20.25;34.31;96569.34;6159226;23;20036;-79
2022/04/13 08:55:50;;;;;;;5.38;3.40;;;;;;;20.41;35.07;96579.09;6184794;23;20022;-79
2022/04/13 08:59:09;;;;;;;12.10;3.63;;;;;;;20.63;33.72;96576.47;6184667;23;20056;-79
2022/04/13 09:02:53;;;;;;;6.22;3.13;;;;;;;20.82;33.14;96574.34;6185253;23;20016;-81
2022/04/13 09:06:20;;;;;;;5.32;3.05;;;;;;;21.01;33.12;96576.66;6162096;23;20029;-78
2022/04/13 10:39:25;;;;;;;10.30;3.70;;;;;;;24.04;31.93;96529.22;6183193;23;20036;-79
2022/04/13 12:33:52;;;;;;;5.22;1.92;;;;;;;24.36;26.49;96509.41;6178255;23;20050;-82
2022/04/13 13:09:38;;;;;;;2.38;1.10;;;;;;;24.29;24.51;96492.91;6212040;23;20001;-79
2022/04/13 13:21:03;;;;;;;4.80;1.88;;;;;;;24.22;24.81;96495.84;6184303;23;20020;-81
2022/04/13 13:23:37;;;;;;;2.63;1.48;;;;;;;24.17;24.18;96490.56;6183839;23;20016;-80
2022/04/13 13:26:26;;;;;;;4.85;1.42;;;;;;;24.14;25.07;96491.09;6160772;23;20021;-82
2022/04/13 13:31:53;;;;;;;3.83;2.00;;;;;;;24.12;26.04;96487.88;6154625;23;20077;-81
2022/04/13 13:40:35;;;;;;;4.30;2.00;;;;;;;23.98;25.81;96485.00;6178828;23;20041;-79
2022/04/13 13:43:15;;;;;;;3.08;1.63;;;;;;;23.95;25.56;96485.56;6169337;23;20036;-80
2022/04/13 13:46:01;;;;;;;3.03;1.70;;;;;;;23.93;26.14;96479.69;6184351;23;20058;-80
2022/04/13 13:48:32;;;;;;;3.90;1.70;;;;;;;23.93;26.39;96474.38;6183694;23;20026;-80
2022/04/13 13:51:18;;;;;;;6.38;2.03;;;;;;;23.91;26.58;96471.19;6182639;23;20033;-79
2022/04/13 13:54:27;;;;;;;8.52;1.80;;;;;;;23.87;26.46;96470.91;6184084;23;20001;-82
2022/04/13 13:57:10;;;;;;;5.72;2.22;;;;;;;23.85;26.29;96465.88;6172900;23;20005;-82
2022/04/13 14:08:16;;;;;;;3.15;1.52;;;;;;;23.84;25.98;96469.59;6182464;23;20005;-81
2022/04/13 14:11:05;;;;;;;9.07;1.98;;;;;;;23.90;26.19;96480.22;6183062;23;20040;-82
2022/04/13 14:13:40;;;;;;;5.35;1.40;;;;;;;23.91;26.38;96476.50;6184393;23;20037;-82
2022/04/13 14:16:19;;;;;;;6.90;2.45;;;;;;;23.92;25.91;96478.91;6159417;23;20040;-80
2022/04/13 14:19:09;;;;;;;5.88;1.73;;;;;;;23.90;26.26;96481.03;6184252;23;20107;-80
2022/04/13 14:21:50;;;;;;;3.25;1.70;;;;;;;23.90;26.65;96480.22;6184240;23;20006;-80
2022/04/13 14:30:09;;;;;;;7.53;2.08;;;;;;;23.94;27.57;96481.28;6181252;23;20033;-79
2022/04/13 14:32:46;;;;;;;5.05;2.35;;;;;;;23.94;27.88;96481.28;6182149;23;20017;-80
2022/04/13 14:35:44;;;;;;;5.85;1.83;;;;;;;23.93;27.56;96475.16;6183224;23;20021;-82
2022/04/13 14:38:24;;;;;;;5.32;1.85;;;;;;;23.94;27.66;96481.28;6159829;23;20010;-80
2022/04/13 14:54:50;;;;;;;3.78;2.40;;;;;;;23.62;27.13;96469.06;6180612;23;20021;-82
2022/04/13 14:57:25;;;;;;;7.23;2.57;;;;;;;23.58;27.44;96463.47;6183839;23;20021;-81
2022/04/13 15:00:00;;;;;;;7.03;2.70;;;;;;;23.55;28.01;96469.34;6183505;23;20311;-79
2022/04/13 15:02:49;;;;;;;9.02;3.28;;;;;;;23.51;28.21;96467.47;6162306;23;20028;-79
2022/04/13 15:22:10;;;;;;;7.22;3.20;;;;;;;23.28;29.94;96468.81;6179249;23;20022;-79
2022/04/13 15:24:43;;;;;;;4.72;3.08;;;;;;;23.26;30.30;96471.72;6185111;23;20065;-83
2022/04/13 15:27:21;;;;;;;4.82;2.65;;;;;;;23.27;30.86;96464.56;6185698;23;20017;-79
2022/04/13 15:29:56;;;;;;;6.57;3.17;;;;;;;23.26;31.70;96463.75;6185751;23;20009;-82
2022/04/13 15:43:20;;;;;;;4.18;2.55;;;;;;;23.13;31.01;96473.03;6141922;23;20004;-82
2022/04/13 15:45:52;;;;;;;5.00;2.42;;;;;;;23.12;30.58;96473.34;6160742;23;20017;-82
2022/04/13 15:48:30;;;;;;;5.45;2.10;;;;;;;23.10;29.99;96472.78;6160542;23;20033;-81
2022/04/13 15:51:06;;;;;;;3.75;1.90;;;;;;;23.10;28.54;96478.91;6161796;23;20005;-80
2022/04/13 15:53:46;;;;;;;3.78;1.60;;;;;;;23.08;28.20;96472.25;6176185;23;20018;-83
2022/04/13 16:02:09;;;;;;;5.72;1.60;;;;;;;23.02;27.00;96482.91;6184078;23;20298;-80
2022/04/13 16:19:02;;;;;;;3.97;1.20;;;;;;;22.80;26.21;96484.94;6171446;23;20025;-79
2022/04/13 16:21:41;;;;;;;2.33;1.02;;;;;;;22.76;26.47;96483.88;6185131;23;20001;-79
2022/04/13 16:24:15;;;;;;;;;;;;;;;22.73;26.62;96489.72;6185333;23;20001;-83
2022/04/13 16:26:58;;;;;;;1.98;1.40;;;;;;;22.69;27.09;96485.97;6185238;23;19900;-80
2022/04/13 16:52:16;;;;;;;2.42;1.05;;;;;;;22.33;28.48;96491.19;6160844;23;20032;-80
2022/04/13 16:57:48;;;;;;;5.20;1.55;;;;;;;22.25;29.54;96487.16;6182588;23;20037;-83
2022/04/13 17:00:22;;;;;;;3.75;1.40;;;;;;;22.23;29.41;96483.94;6185281;23;20017;-82
2022/04/13 17:08:28;;;;;;;2.13;1.50;;;;;;;22.12;30.20;96496.34;6214833;23;20015;-79
2022/04/13 17:34:14;;;;;;;2.20;1.20;;;;;;;21.71;27.79;96493.47;6177191;23;20005;-79
2022/04/13 17:36:52;;;;;;;3.45;1.10;;;;;;;21.67;27.87;96491.56;6184427;23;20005;-80
2022/04/13 17:39:35;;;;;;;4.30;1.27;;;;;;;21.62;28.17;96494.19;6184434;23;20001;-80
2022/04/13 17:42:40;;;;;;;2.78;1.58;;;;;;;21.56;28.57;96494.16;6184549;23;20033;-79
2022/04/13 17:51:07;;;;;;;7.25;1.60;;;;;;;21.40;29.44;96503.00;6175147;23;20045;-80
2022/04/13 17:59:41;;;;;;;;;;;;;;;21.25;30.25;96519.59;6166225;23;20021;-79
2022/04/13 18:02:22;;;;;;;4.90;2.40;;;;;;;21.16;30.98;96527.19;6184105;23;19901;-80
2022/04/13 18:04:59;;;;;;;4.10;1.35;;;;;;;21.09;31.35;96525.81;6184173;23;20005;-80
2022/04/13 18:19:23;;;;;;;2.28;1.45;;;;;;;20.70;33.94;96544.50;6204816;23;20000;-81
2022/04/13 18:22:39;;;;;;;3.13;1.20;;;;;;;20.61;33.99;96545.97;6182026;23;20024;-80
2022/04/13 18:25:23;;;;;;;3.75;1.70;;;;;;;20.52;34.90;96549.00;6183816;23;20017;-79
2022/04/13 18:28:16;;;;;;;4.80;3.38;;;;;;;20.44;34.74;96549.44;6179337;23;20017;-79
2022/04/13 18:40:32;;;;;;;2.13;1.50;;;;;;;20.04;35.94;96553.16;6196317;23;20021;-80
2022/04/13 18:47:42;;;;;;;4.20;2.35;;;;;;;19.70;36.58;96547.88;6181091;23;20013;-80
2022/04/13 18:50:49;;;;;;;5.85;3.13;;;;;;;19.60;36.42;96557.47;6181682;23;20057;-79
2022/04/13 18:54:09;;;;;;;2.00;1.73;;;;;;;19.51;36.64;96557.88;6179491;23;20033;-78
2022/04/13 18:56:59;;;;;;;2.55;1.92;;;;;;;19.47;36.86;96563.88;6180895;23;20017;-79
2022/04/13 21:28:07;;;;;;;2.53;2.10;;;;;;;15.77;47.63;96658.56;6289258;22;20010;-80
2022/04/13 21:34:10;;;;;;;5.57;2.40;;;;;;;15.51;47.86;96665.56;6305707;22;20016;-79
2022/04/13 21:37:06;;;;;;;3.72;2.85;;;;;;;15.40;48.51;96664.41;6305472;22;20017;-79
2022/04/13 21:42:36;;;;;;;4.90;2.35;;;;;;;15.32;49.27;96671.75;6242167;22;20007;-80
2022/04/13 21:45:33;;;;;;;4.45;2.50;;;;;;;15.31;48.65;96668.31;6275048;22;20032;-82
2022/04/13 21:48:28;;;;;;;5.95;2.70;;;;;;;15.27;48.34;96667.13;6273535;22;20044;-81
2022/04/13 21:56:43;;;;;;;4.25;3.17;;;;;;;15.08;48.82;96668.81;6237642;22;20023;-79
2022/04/13 21:59:21;;;;;;;5.30;2.60;;;;;;;14.97;48.85;96672.09;6265005;22;20031;-80
2022/04/13 22:13:57;;;;;;;4.88;3.22;;;;;;;14.59;50.17;96665.72;6210459;22;20030;-79
2022/04/13 22:19:34;;;;;;;5.25;2.85;;;;;;;14.48;50.01;96661.09;6261893;22;19907;-79
2022/04/13 22:22:33;;;;;;;2.63;2.43;;;;;;;14.45;50.63;96666.72;6244102;22;20079;-79
2022/04/13 22:31:39;;;;;;;4.93;3.13;;;;;;;14.18;51.61;96668.56;6266565;22;20024;-79
2022/04/13 22:34:13;;;;;;;6.15;3.47;;;;;;;14.13;51.15;96665.75;6305132;22;20075;-82
2022/04/13 22:40:08;;;;;;;3.23;2.43;;;;;;;13.91;52.10;96665.16;6268197;22;20020;-80
2022/04/13 23:01:31;;;;;;;2.85;2.58;;;;;;;13.52;52.74;96651.78;6270665;22;20023;-79
2022/04/13 23:34:44;;;;;;;4.25;3.20;;;;;;;13.25;54.41;96650.06;6242846;23;20048;-79
2022/04/13 23:37:20;;;;;;;3.58;3.00;;;;;;;13.28;55.04;96650.53;6217780;23;20000;-80
2022/04/13 23:42:55;;;;;;;4.55;3.22;;;;;;;13.33;53.95;96642.06;6211174;23;20061;-80
2022/04/13 23:45:29;;;;;;;4.95;3.42;;;;;;;13.31;53.83;96638.84;6212098;23;20021;-80
